Search for airport 
image banner adimage banner adimage banner ad
image banner ad

27P - Eldora

Located in Eldora, United States

ICAO - 27P, IATA -

Data provided by Airmate  

General information

Coordinates: N42°19'48" W93°6'52"
Elevation is 979 feet MSL.
 
View others Airports in Iowa

Operational data

Special qualification required
Current time UTC:
Current local time:
Weather at : KIFA - Iowa Falls Muni ( 20 km )
METAR: KIFA 151035Z AUTO 00000KT 10SM CLR 14/09 A3012 RMK AO2 T01410093
View NOTAMs / SUP AIP / TFR affecting this airport [VIEW]
Communications frequencies: [VIEW]

Runways:

RWY identifierQFULength (ft)Width (ft)SurfaceLDA (ft)
182995100GRASS
362995100GRASS

Airport contact information

Address: Eldora United States

Satellite view of 27P